Badan Meteorologi, Klimatologi, dan Geofisika

CUACA TERKINI BANDARA KUALANAMU

Kamis, 24 Januari 2019 06:01 UTC

Cuaca : Berawan

Angin : (dari) Timur Laut, 14.8 km/jam

Jarak Pandang : 8.0 km

Suhu : 30 °C

Waktu Pengamatan : 12:30 WIB

Selengkapnya>>>

DATA METEOROLOGI KUALANAMU

Data Metar Terbaru

WIMM 240530Z 03008KT 8000 BKN017 30/24 Q1011 NOSIG=

WIMM 240500Z 05006KT 8000 BKN017 31/23 Q1011 NOSIG=

WIMM 240400Z 10006KT 060V120 7000 SCT017 30/23 Q1012 NOSIG=

TAF WIMM 240500Z 2406/2506 36010KT 8000 SCT017 BECMG 2410/2412 VRB04KT 4000 HZ =

Selengkapnya>>>

Data TAF Terbaru

TAF WIMM 240500Z 2406/2506 36010KT 8000 SCT017 BECMG 2410/2412 VRB04KT 4000 HZ =

Selengkapnya>>>

CITRA SATELIT

Enhanced
Citra Satelit
Cloud Type
Citra Satelit IR
Hotspot
Citra Satelit
Sebaran Asap
Citra Satelit